Allerton, Illinois
Current Conditions -  °F | °C
As of 8:53 PM on Saturday 22 Nov 2014 (Local Time) from KCMI Reporting Station
Light Rain Light Rain  
Wind Chill: 50°   Ceiling: 6000
Heat Index: 50°   Visibility: 8mi
Dew Point: 46°   Wind: 18mph
Humidity: 86%   Direction: 180°S
Pressure: 29.94"   Gusts: NA
Location:  39.91°N, 87.94°W
Report Text: KCMI 230253Z 18016KT 8SM -RA BKN060 OVC090 10/08 A2994 RMK AO2 SLP141 P0002 60005 T01000078 58006 $
Loading
Personal Weather Stations






























Interactive Weather Map New forecast layout! Learn more

10-Day Weather Forecast

Advertisements
Track Severe Weather on mobile